createdAt,value
2019-01-30T11:12:21.325Z,3.89
2019-01-30T11:17:26.655Z,4.63
2019-01-30T11:22:31.944Z,4.99
2019-01-30T11:27:37.272Z,5.26
2019-01-30T11:32:42.594Z,5.42
2019-01-30T11:37:47.970Z,5.49
2019-01-30T11:42:53.276Z,5.53
2019-01-30T11:47:58.580Z,5.56
2019-01-30T11:53:04.319Z,5.60
2019-01-30T11:58:09.821Z,5.68
2019-01-30T12:03:15.274Z,5.74
2019-01-30T12:08:20.604Z,5.83
2019-01-30T12:13:25.977Z,5.89
2019-01-30T12:18:31.268Z,5.87
2019-01-30T12:23:36.561Z,5.77
2019-01-30T12:28:41.928Z,5.77
2019-01-30T12:33:47.247Z,5.90
2019-01-30T12:38:52.787Z,5.92
2019-01-30T12:43:58.097Z,5.92
2019-01-30T12:49:03.488Z,5.94
2019-01-30T12:54:08.814Z,5.91
2019-01-30T12:59:14.128Z,5.95
2019-01-30T13:04:19.411Z,6.04
2019-01-30T13:09:24.763Z,6.14
2019-01-30T13:14:30.250Z,6.22
2019-01-30T13:19:35.554Z,6.20
2019-01-30T13:24:40.862Z,6.14
2019-01-30T13:29:46.228Z,6.08
2019-01-30T13:34:51.685Z,6.06
2019-01-30T13:39:56.992Z,6.10
2019-01-30T13:45:02.318Z,6.13
2019-01-30T13:50:20.544Z,6.15
2019-01-30T13:55:25.917Z,6.13
2019-01-30T14:00:33.874Z,6.09
2019-01-30T14:05:39.294Z,6.04
2019-01-30T14:10:44.689Z,6.00
2019-01-30T14:15:50.104Z,5.98
2019-01-30T14:20:55.500Z,5.97
2019-01-30T14:26:00.794Z,5.99
2019-01-30T14:31:06.341Z,6.03
2019-01-30T14:36:11.654Z,6.00
2019-01-30T14:41:17.077Z,6.00
2019-01-30T14:46:22.510Z,6.00
2019-01-30T14:51:27.803Z,5.95
2019-01-30T14:56:33.116Z,5.87
2019-01-30T15:01:38.440Z,5.80
2019-01-30T15:06:43.788Z,5.69
2019-01-30T15:11:49.159Z,5.62
2019-01-30T15:16:54.714Z,5.55
2019-01-30T15:22:02.016Z,5.49
2019-01-30T15:27:07.386Z,5.46
2019-01-30T15:32:12.699Z,5.42
2019-01-30T15:37:18.040Z,5.41
2019-01-30T15:42:23.335Z,5.37
2019-01-30T15:47:28.640Z,5.36
2019-01-30T15:52:33.975Z,5.35
2019-01-30T15:57:39.290Z,5.32
2019-01-30T16:02:44.677Z,5.29
2019-01-30T16:07:50.058Z,5.28
2019-01-30T16:12:55.391Z,5.27
2019-01-30T16:18:00.786Z,5.27
2019-01-30T16:23:06.111Z,5.29
2019-01-30T16:28:11.421Z,5.30
2019-01-30T16:33:17.026Z,5.30
2019-01-30T16:38:22.403Z,5.29
2019-01-30T16:43:27.828Z,5.26
2019-01-30T16:48:33.176Z,5.25
2019-01-30T16:53:38.498Z,5.23
2019-01-30T16:58:43.775Z,5.18
2019-01-30T17:03:49.057Z,5.20
2019-01-30T17:08:54.564Z,5.26
2019-01-30T17:13:59.949Z,5.29
2019-01-30T17:19:05.387Z,5.29
2019-01-30T17:24:12.055Z,5.29
2019-01-30T17:29:19.477Z,5.34
2019-01-30T17:34:25.788Z,5.37
2019-01-30T17:39:41.187Z,5.39
2019-01-30T17:44:47.504Z,5.36
2019-01-30T17:49:52.848Z,5.36
2019-01-30T17:54:58.165Z,5.37
2019-01-30T18:00:05.283Z,5.36
2019-01-30T18:05:10.711Z,5.35
2019-01-30T18:10:17.927Z,5.30
2019-01-30T18:15:23.461Z,5.29
2019-01-30T18:20:28.868Z,5.26
2019-01-30T18:25:34.187Z,5.23
2019-01-30T18:30:39.758Z,5.27
2019-01-30T18:35:45.119Z,5.34
2019-01-30T18:40:50.433Z,5.39
2019-01-30T18:45:55.870Z,5.37
2019-01-30T18:51:01.351Z,5.40
2019-01-30T18:56:07.111Z,5.44
2019-01-30T19:01:12.638Z,5.47
2019-01-30T19:06:18.104Z,5.48
2019-01-30T19:11:23.837Z,5.50
2019-01-30T19:16:29.362Z,5.47
2019-01-30T19:21:34.919Z,5.48
2019-01-30T19:26:40.498Z,5.49
2019-01-30T19:31:46.111Z,5.49
2019-01-30T19:37:02.932Z,5.46
2019-01-30T19:41:58.866Z,5.47
2019-01-30T19:47:04.336Z,5.47
2019-01-30T19:52:09.834Z,5.41
2019-01-30T19:57:15.822Z,5.33
2019-01-30T20:02:21.246Z,5.31
2019-01-30T20:07:26.913Z,5.23
2019-01-30T20:12:32.356Z,5.21
2019-01-30T20:17:37.883Z,5.26
2019-01-30T20:22:43.447Z,5.28
2019-01-30T20:27:48.886Z,5.30
2019-01-30T20:32:54.510Z,5.30
2019-01-30T20:37:59.857Z,5.34
2019-01-30T20:43:05.174Z,5.37
2019-01-30T20:48:10.571Z,5.39
2019-01-30T20:53:15.899Z,5.35
2019-01-30T20:58:21.268Z,5.31
2019-01-30T21:03:26.591Z,5.25
2019-01-30T21:08:31.917Z,5.15
2019-01-30T21:13:37.273Z,5.03
2019-01-30T21:18:42.606Z,4.90
2019-01-30T21:23:47.939Z,4.82
2019-01-30T21:28:53.281Z,4.74
2019-01-30T21:33:58.620Z,4.70
2019-01-30T21:39:05.534Z,4.67
2019-01-30T21:44:10.834Z,4.65
2019-01-30T21:54:20.307Z,4.64
2019-01-30T21:59:25.643Z,4.62
2019-01-30T22:04:30.944Z,4.58
2019-01-30T22:09:36.298Z,4.52
2019-01-30T22:14:41.797Z,4.45
2019-01-30T22:19:47.132Z,4.38
2019-01-30T22:24:52.463Z,4.28
2019-01-30T22:29:57.836Z,4.17
2019-01-30T22:35:03.143Z,4.08
2019-01-30T22:40:10.167Z,3.98
2019-01-30T22:45:17.205Z,3.88
2019-01-30T22:50:22.794Z,3.79
2019-01-30T22:55:28.172Z,3.78
2019-01-30T23:01:20.354Z,3.83
2019-01-30T23:07:29.158Z,3.92
2019-01-30T23:13:22.170Z,4.11
2019-01-30T23:19:00.695Z,4.27
2019-01-30T23:24:56.294Z,4.43
2019-01-30T23:30:45.216Z,4.58
2019-01-30T23:36:27.323Z,4.67
2019-01-30T23:42:01.697Z,4.69
2019-01-30T23:47:54.011Z,4.61
2019-01-30T23:53:56.198Z,4.47
2019-01-30T23:59:43.339Z,4.33
